sensor_id;sensor_type;location;lat;lon;timestamp;P1;durP1;ratioP1;P2;durP2;ratioP2
50012;SDS011;35901;48.694;9.476;2023-12-20T00:00:16;2.40;;;2.20;;
50012;SDS011;35901;48.694;9.476;2023-12-20T00:02:42;2.30;;;2.10;;
50012;SDS011;35901;48.694;9.476;2023-12-20T00:05:12;2.30;;;2.10;;
50012;SDS011;35901;48.694;9.476;2023-12-20T00:07:38;2.47;;;2.27;;
50012;SDS011;35901;48.694;9.476;2023-12-20T00:10:04;2.70;;;2.47;;
50012;SDS011;35901;48.694;9.476;2023-12-20T00:12:30;2.17;;;2.00;;
50012;SDS011;35901;48.694;9.476;2023-12-20T00:14:56;2.30;;;2.10;;
50012;SDS011;35901;48.694;9.476;2023-12-20T00:17:21;2.40;;;2.20;;
50012;SDS011;35901;48.694;9.476;2023-12-20T00:23:09;1.83;;;1.70;;
50012;SDS011;35901;48.694;9.476;2023-12-20T00:25:35;1.83;;;1.70;;
50012;SDS011;35901;48.694;9.476;2023-12-20T00:28:01;1.70;;;1.60;;
50012;SDS011;35901;48.694;9.476;2023-12-20T00:30:27;1.50;;;1.40;;
50012;SDS011;35901;48.694;9.476;2023-12-20T00:32:53;1.83;;;1.50;;
50012;SDS011;35901;48.694;9.476;2023-12-20T00:35:19;1.60;;;1.50;;
50012;SDS011;35901;48.694;9.476;2023-12-20T00:37:45;1.50;;;1.40;;
50012;SDS011;35901;48.694;9.476;2023-12-20T00:40:10;1.20;;;1.20;;
50012;SDS011;35901;48.694;9.476;2023-12-20T00:42:36;1.50;;;1.40;;
50012;SDS011;35901;48.694;9.476;2023-12-20T00:45:02;1.43;;;1.30;;
50012;SDS011;35901;48.694;9.476;2023-12-20T00:47:29;1.33;;;1.30;;
50012;SDS011;35901;48.694;9.476;2023-12-20T00:49:55;1.40;;;1.30;;
50012;SDS011;35901;48.694;9.476;2023-12-20T00:52:25;1.43;;;1.33;;
50012;SDS011;35901;48.694;9.476;2023-12-20T00:54:51;1.60;;;1.50;;
50012;SDS011;35901;48.694;9.476;2023-12-20T00:57:17;2.03;;;1.70;;
50012;SDS011;35901;48.694;9.476;2023-12-20T00:59:42;1.87;;;1.40;;
50012;SDS011;35901;48.694;9.476;2023-12-20T01:02:08;1.60;;;1.50;;
50012;SDS011;35901;48.694;9.476;2023-12-20T01:04:35;2.33;;;1.70;;
50012;SDS011;35901;48.694;9.476;2023-12-20T01:07:00;1.80;;;1.60;;
50012;SDS011;35901;48.694;9.476;2023-12-20T01:09:26;1.73;;;1.63;;
50012;SDS011;35901;48.694;9.476;2023-12-20T01:11:55;1.97;;;1.87;;
50012;SDS011;35901;48.694;9.476;2023-12-20T01:14:20;2.20;;;2.00;;
50012;SDS011;35901;48.694;9.476;2023-12-20T01:16:46;2.40;;;2.00;;
50012;SDS011;35901;48.694;9.476;2023-12-20T01:19:12;1.70;;;1.60;;
50012;SDS011;35901;48.694;9.476;2023-12-20T01:28:47;2.80;;;1.80;;
50012;SDS011;35901;48.694;9.476;2023-12-20T01:31:12;3.20;;;1.70;;
50012;SDS011;35901;48.694;9.476;2023-12-20T01:33:38;1.80;;;1.70;;
50012;SDS011;35901;48.694;9.476;2023-12-20T01:36:04;1.90;;;1.60;;
50012;SDS011;35901;48.694;9.476;2023-12-20T01:38:29;1.83;;;1.67;;
50012;SDS011;35901;48.694;9.476;2023-12-20T01:40:55;2.70;;;1.70;;
50012;SDS011;35901;48.694;9.476;2023-12-20T01:43:21;2.23;;;1.70;;
50012;SDS011;35901;48.694;9.476;2023-12-20T01:45:47;1.70;;;1.60;;
50012;SDS011;35901;48.694;9.476;2023-12-20T01:48:13;2.00;;;1.80;;
50012;SDS011;35901;48.694;9.476;2023-12-20T01:50:41;1.90;;;1.80;;
50012;SDS011;35901;48.694;9.476;2023-12-20T01:53:08;1.70;;;1.60;;
50012;SDS011;35901;48.694;9.476;2023-12-20T01:55:36;1.80;;;1.70;;
50012;SDS011;35901;48.694;9.476;2023-12-20T01:58:04;1.90;;;1.80;;
50012;SDS011;35901;48.694;9.476;2023-12-20T02:00:35;2.50;;;1.90;;
50012;SDS011;35901;48.694;9.476;2023-12-20T02:03:01;3.33;;;1.70;;
50012;SDS011;35901;48.694;9.476;2023-12-20T02:05:29;1.60;;;1.50;;
50012;SDS011;35901;48.694;9.476;2023-12-20T02:07:55;1.30;;;1.30;;
50012;SDS011;35901;48.694;9.476;2023-12-20T02:10:21;1.50;;;1.40;;
50012;SDS011;35901;48.694;9.476;2023-12-20T02:12:47;1.30;;;1.30;;
50012;SDS011;35901;48.694;9.476;2023-12-20T02:15:12;2.00;;;1.40;;
50012;SDS011;35901;48.694;9.476;2023-12-20T02:17:38;1.67;;;1.57;;
50012;SDS011;35901;48.694;9.476;2023-12-20T02:20:05;1.40;;;1.40;;
50012;SDS011;35901;48.694;9.476;2023-12-20T02:22:31;1.60;;;1.50;;
50012;SDS011;35901;48.694;9.476;2023-12-20T02:24:57;2.23;;;1.50;;
50012;SDS011;35901;48.694;9.476;2023-12-20T02:27:23;1.33;;;1.30;;
50012;SDS011;35901;48.694;9.476;2023-12-20T02:29:48;1.80;;;1.40;;
50012;SDS011;35901;48.694;9.476;2023-12-20T02:32:16;1.30;;;1.20;;
50012;SDS011;35901;48.694;9.476;2023-12-20T02:34:43;1.43;;;1.33;;
50012;SDS011;35901;48.694;9.476;2023-12-20T02:37:08;1.50;;;1.40;;
50012;SDS011;35901;48.694;9.476;2023-12-20T02:39:34;1.37;;;1.27;;
50012;SDS011;35901;48.694;9.476;2023-12-20T02:42:00;1.60;;;1.50;;
50012;SDS011;35901;48.694;9.476;2023-12-20T02:44:25;1.20;;;1.20;;
50012;SDS011;35901;48.694;9.476;2023-12-20T02:46:51;1.40;;;1.30;;
50012;SDS011;35901;48.694;9.476;2023-12-20T02:49:17;1.53;;;1.43;;
50012;SDS011;35901;48.694;9.476;2023-12-20T02:51:43;1.70;;;1.60;;
50012;SDS011;35901;48.694;9.476;2023-12-20T02:54:08;1.80;;;1.50;;
50012;SDS011;35901;48.694;9.476;2023-12-20T02:56:34;1.40;;;1.40;;
50012;SDS011;35901;48.694;9.476;2023-12-20T02:59:00;1.87;;;1.77;;
50012;SDS011;35901;48.694;9.476;2023-12-20T03:01:26;2.10;;;1.70;;
50012;SDS011;35901;48.694;9.476;2023-12-20T03:03:52;2.53;;;2.00;;
50012;SDS011;35901;48.694;9.476;2023-12-20T03:06:18;1.60;;;1.50;;
50012;SDS011;35901;48.694;9.476;2023-12-20T03:08:44;1.60;;;1.50;;
50012;SDS011;35901;48.694;9.476;2023-12-20T03:11:10;2.30;;;1.93;;
50012;SDS011;35901;48.694;9.476;2023-12-20T03:13:36;1.97;;;1.87;;
50012;SDS011;35901;48.694;9.476;2023-12-20T03:16:07;2.57;;;2.03;;
50012;SDS011;35901;48.694;9.476;2023-12-20T03:18:34;2.10;;;1.90;;
50012;SDS011;35901;48.694;9.476;2023-12-20T03:20:59;2.00;;;1.90;;
50012;SDS011;35901;48.694;9.476;2023-12-20T03:23:25;2.43;;;1.87;;
50012;SDS011;35901;48.694;9.476;2023-12-20T03:25:52;2.50;;;2.30;;
50012;SDS011;35901;48.694;9.476;2023-12-20T03:28:18;2.57;;;2.37;;
50012;SDS011;35901;48.694;9.476;2023-12-20T03:30:44;2.50;;;2.23;;
50012;SDS011;35901;48.694;9.476;2023-12-20T03:33:09;2.83;;;2.47;;
50012;SDS011;35901;48.694;9.476;2023-12-20T03:35:35;2.40;;;2.20;;
50012;SDS011;35901;48.694;9.476;2023-12-20T03:38:01;3.50;;;2.80;;
50012;SDS011;35901;48.694;9.476;2023-12-20T03:40:27;5.50;;;3.17;;
50012;SDS011;35901;48.694;9.476;2023-12-20T03:42:52;4.00;;;3.17;;
50012;SDS011;35901;48.694;9.476;2023-12-20T03:45:18;3.23;;;2.70;;
50012;SDS011;35901;48.694;9.476;2023-12-20T03:47:43;3.43;;;2.80;;
50012;SDS011;35901;48.694;9.476;2023-12-20T03:50:09;5.30;;;3.03;;
50012;SDS011;35901;48.694;9.476;2023-12-20T03:52:34;3.67;;;2.80;;
50012;SDS011;35901;48.694;9.476;2023-12-20T03:55:00;2.63;;;2.43;;
50012;SDS011;35901;48.694;9.476;2023-12-20T03:57:26;2.90;;;2.60;;
50012;SDS011;35901;48.694;9.476;2023-12-20T03:59:51;3.97;;;2.33;;
50012;SDS011;35901;48.694;9.476;2023-12-20T04:02:17;2.67;;;2.20;;
50012;SDS011;35901;48.694;9.476;2023-12-20T04:04:43;2.30;;;2.10;;
50012;SDS011;35901;48.694;9.476;2023-12-20T04:07:08;2.17;;;2.07;;
50012;SDS011;35901;48.694;9.476;2023-12-20T04:09:34;2.40;;;1.87;;
50012;SDS011;35901;48.694;9.476;2023-12-20T04:12:00;1.90;;;1.80;;
50012;SDS011;35901;48.694;9.476;2023-12-20T04:14:26;2.17;;;1.97;;
50012;SDS011;35901;48.694;9.476;2023-12-20T04:16:52;2.27;;;2.07;;
50012;SDS011;35901;48.694;9.476;2023-12-20T04:19:17;1.97;;;1.83;;
50012;SDS011;35901;48.694;9.476;2023-12-20T04:21:43;2.20;;;2.00;;
50012;SDS011;35901;48.694;9.476;2023-12-20T04:24:08;1.90;;;1.80;;
50012;SDS011;35901;48.694;9.476;2023-12-20T04:26:34;2.10;;;1.97;;
50012;SDS011;35901;48.694;9.476;2023-12-20T04:29:00;2.77;;;1.97;;
50012;SDS011;35901;48.694;9.476;2023-12-20T04:31:25;2.00;;;1.90;;
50012;SDS011;35901;48.694;9.476;2023-12-20T04:33:51;2.30;;;2.10;;
50012;SDS011;35901;48.694;9.476;2023-12-20T04:36:16;2.07;;;1.97;;
50012;SDS011;35901;48.694;9.476;2023-12-20T04:38:42;1.73;;;1.63;;
50012;SDS011;35901;48.694;9.476;2023-12-20T04:41:08;2.10;;;1.90;;
50012;SDS011;35901;48.694;9.476;2023-12-20T04:43:33;2.70;;;2.30;;
50012;SDS011;35901;48.694;9.476;2023-12-20T04:45:59;2.40;;;2.20;;
50012;SDS011;35901;48.694;9.476;2023-12-20T04:48:25;2.63;;;2.17;;
50012;SDS011;35901;48.694;9.476;2023-12-20T04:50:50;2.10;;;2.00;;
50012;SDS011;35901;48.694;9.476;2023-12-20T04:53:16;1.90;;;1.80;;
50012;SDS011;35901;48.694;9.476;2023-12-20T04:55:41;1.90;;;1.80;;
50012;SDS011;35901;48.694;9.476;2023-12-20T04:58:07;1.70;;;1.60;;
50012;SDS011;35901;48.694;9.476;2023-12-20T05:00:33;1.93;;;1.83;;
50012;SDS011;35901;48.694;9.476;2023-12-20T05:02:58;1.77;;;1.60;;
50012;SDS011;35901;48.694;9.476;2023-12-20T05:05:24;1.83;;;1.60;;
50012;SDS011;35901;48.694;9.476;2023-12-20T05:07:49;1.63;;;1.53;;
50012;SDS011;35901;48.694;9.476;2023-12-20T05:10:15;1.67;;;1.50;;
50012;SDS011;35901;48.694;9.476;2023-12-20T05:12:40;2.30;;;1.80;;
50012;SDS011;35901;48.694;9.476;2023-12-20T05:15:06;1.50;;;1.40;;
50012;SDS011;35901;48.694;9.476;2023-12-20T05:17:33;1.70;;;1.60;;
50012;SDS011;35901;48.694;9.476;2023-12-20T05:19:58;1.90;;;1.80;;
50012;SDS011;35901;48.694;9.476;2023-12-20T05:22:24;2.00;;;1.90;;
50012;SDS011;35901;48.694;9.476;2023-12-20T05:24:50;2.40;;;2.20;;
50012;SDS011;35901;48.694;9.476;2023-12-20T05:27:15;2.00;;;1.73;;
50012;SDS011;35901;48.694;9.476;2023-12-20T05:29:41;2.40;;;2.20;;
50012;SDS011;35901;48.694;9.476;2023-12-20T05:32:06;2.40;;;2.20;;
50012;SDS011;35901;48.694;9.476;2023-12-20T05:34:32;2.23;;;2.07;;
50012;SDS011;35901;48.694;9.476;2023-12-20T05:36:58;1.90;;;1.80;;
50012;SDS011;35901;48.694;9.476;2023-12-20T05:39:23;1.90;;;1.80;;
50012;SDS011;35901;48.694;9.476;2023-12-20T05:41:49;2.70;;;2.23;;
50012;SDS011;35901;48.694;9.476;2023-12-20T05:44:15;5.87;;;4.20;;
50012;SDS011;35901;48.694;9.476;2023-12-20T05:46:40;5.07;;;4.47;;
50012;SDS011;35901;48.694;9.476;2023-12-20T05:49:06;4.83;;;4.43;;
50012;SDS011;35901;48.694;9.476;2023-12-20T05:51:32;3.83;;;3.53;;
50012;SDS011;35901;48.694;9.476;2023-12-20T05:53:58;2.47;;;2.27;;
50012;SDS011;35901;48.694;9.476;2023-12-20T05:56:24;1.80;;;1.70;;
50012;SDS011;35901;48.694;9.476;2023-12-20T05:58:49;1.50;;;1.40;;
50012;SDS011;35901;48.694;9.476;2023-12-20T06:01:15;2.20;;;1.70;;
50012;SDS011;35901;48.694;9.476;2023-12-20T06:03:42;1.80;;;1.70;;
50012;SDS011;35901;48.694;9.476;2023-12-20T06:06:08;1.47;;;1.40;;
50012;SDS011;35901;48.694;9.476;2023-12-20T06:08:35;1.90;;;1.80;;
50012;SDS011;35901;48.694;9.476;2023-12-20T06:11:01;1.00;;;1.00;;
50012;SDS011;35901;48.694;9.476;2023-12-20T06:13:27;3.73;;;2.90;;
50012;SDS011;35901;48.694;9.476;2023-12-20T06:15:54;3.67;;;2.60;;
50012;SDS011;35901;48.694;9.476;2023-12-20T06:18:20;2.40;;;2.20;;
50012;SDS011;35901;48.694;9.476;2023-12-20T06:20:45;1.90;;;1.80;;
50012;SDS011;35901;48.694;9.476;2023-12-20T06:23:11;1.77;;;1.60;;
50012;SDS011;35901;48.694;9.476;2023-12-20T06:25:36;2.00;;;1.80;;
50012;SDS011;35901;48.694;9.476;2023-12-20T06:28:02;1.90;;;1.80;;
50012;SDS011;35901;48.694;9.476;2023-12-20T06:30:28;3.10;;;1.57;;
50012;SDS011;35901;48.694;9.476;2023-12-20T06:32:54;3.80;;;2.00;;
50012;SDS011;35901;48.694;9.476;2023-12-20T06:35:20;3.60;;;2.00;;
50012;SDS011;35901;48.694;9.476;2023-12-20T06:37:45;4.83;;;2.20;;
50012;SDS011;35901;48.694;9.476;2023-12-20T06:40:11;3.57;;;2.00;;
50012;SDS011;35901;48.694;9.476;2023-12-20T06:42:37;2.93;;;2.03;;
50012;SDS011;35901;48.694;9.476;2023-12-20T06:45:03;5.23;;;1.93;;
50012;SDS011;35901;48.694;9.476;2023-12-20T06:47:28;2.90;;;2.30;;
50012;SDS011;35901;48.694;9.476;2023-12-20T06:49:54;2.27;;;2.07;;
50012;SDS011;35901;48.694;9.476;2023-12-20T06:52:20;2.57;;;2.37;;
50012;SDS011;35901;48.694;9.476;2023-12-20T06:54:46;3.40;;;2.30;;
50012;SDS011;35901;48.694;9.476;2023-12-20T06:57:11;3.37;;;3.07;;
50012;SDS011;35901;48.694;9.476;2023-12-20T06:59:40;2.70;;;2.50;;
50012;SDS011;35901;48.694;9.476;2023-12-20T07:02:06;3.20;;;2.50;;
50012;SDS011;35901;48.694;9.476;2023-12-20T07:04:33;2.50;;;2.30;;
50012;SDS011;35901;48.694;9.476;2023-12-20T07:06:58;2.47;;;2.27;;
50012;SDS011;35901;48.694;9.476;2023-12-20T07:09:28;2.93;;;2.20;;
50012;SDS011;35901;48.694;9.476;2023-12-20T07:11:54;2.10;;;1.90;;
50012;SDS011;35901;48.694;9.476;2023-12-20T07:14:19;2.50;;;2.30;;
50012;SDS011;35901;48.694;9.476;2023-12-20T07:16:45;2.77;;;2.57;;
50012;SDS011;35901;48.694;9.476;2023-12-20T07:19:10;5.50;;;4.80;;
50012;SDS011;35901;48.694;9.476;2023-12-20T07:21:36;4.43;;;4.03;;
50012;SDS011;35901;48.694;9.476;2023-12-20T07:24:02;3.53;;;3.23;;
50012;SDS011;35901;48.694;9.476;2023-12-20T07:26:27;7.50;;;5.77;;
50012;SDS011;35901;48.694;9.476;2023-12-20T07:28:53;6.17;;;5.47;;
50012;SDS011;35901;48.694;9.476;2023-12-20T07:31:19;5.97;;;3.73;;
50012;SDS011;35901;48.694;9.476;2023-12-20T07:33:44;3.50;;;3.10;;
50012;SDS011;35901;48.694;9.476;2023-12-20T07:36:10;3.97;;;3.40;;
50012;SDS011;35901;48.694;9.476;2023-12-20T07:38:36;3.73;;;3.33;;
50012;SDS011;35901;48.694;9.476;2023-12-20T07:41:02;4.13;;;3.33;;
50012;SDS011;35901;48.694;9.476;2023-12-20T07:43:28;3.30;;;3.03;;
50012;SDS011;35901;48.694;9.476;2023-12-20T07:45:53;3.40;;;3.10;;
50012;SDS011;35901;48.694;9.476;2023-12-20T07:48:19;3.40;;;3.10;;
50012;SDS011;35901;48.694;9.476;2023-12-20T07:50:44;3.20;;;2.87;;
50012;SDS011;35901;48.694;9.476;2023-12-20T07:53:10;3.17;;;2.97;;
50012;SDS011;35901;48.694;9.476;2023-12-20T07:55:36;3.20;;;3.00;;
50012;SDS011;35901;48.694;9.476;2023-12-20T07:58:01;4.47;;;3.20;;
50012;SDS011;35901;48.694;9.476;2023-12-20T08:00:27;4.37;;;3.40;;
50012;SDS011;35901;48.694;9.476;2023-12-20T08:02:53;3.93;;;3.63;;
50012;SDS011;35901;48.694;9.476;2023-12-20T08:05:18;3.50;;;3.20;;
50012;SDS011;35901;48.694;9.476;2023-12-20T08:07:44;4.53;;;3.87;;
50012;SDS011;35901;48.694;9.476;2023-12-20T08:10:10;6.00;;;5.50;;
50012;SDS011;35901;48.694;9.476;2023-12-20T08:12:36;5.53;;;4.30;;
50012;SDS011;35901;48.694;9.476;2023-12-20T08:15:02;3.87;;;3.57;;
50012;SDS011;35901;48.694;9.476;2023-12-20T08:17:28;3.40;;;3.10;;
50012;SDS011;35901;48.694;9.476;2023-12-20T08:19:54;4.90;;;3.57;;
50012;SDS011;35901;48.694;9.476;2023-12-20T08:22:20;4.40;;;4.00;;
50012;SDS011;35901;48.694;9.476;2023-12-20T08:24:45;5.43;;;4.40;;
50012;SDS011;35901;48.694;9.476;2023-12-20T08:27:11;6.80;;;5.60;;
50012;SDS011;35901;48.694;9.476;2023-12-20T08:29:36;6.67;;;5.67;;
50012;SDS011;35901;48.694;9.476;2023-12-20T08:32:02;7.47;;;5.77;;
50012;SDS011;35901;48.694;9.476;2023-12-20T08:34:29;6.43;;;5.80;;
50012;SDS011;35901;48.694;9.476;2023-12-20T08:36:54;7.13;;;6.43;;
50012;SDS011;35901;48.694;9.476;2023-12-20T08:39:20;6.83;;;6.03;;
50012;SDS011;35901;48.694;9.476;2023-12-20T08:41:45;7.13;;;6.17;;
50012;SDS011;35901;48.694;9.476;2023-12-20T08:44:11;7.40;;;6.70;;
50012;SDS011;35901;48.694;9.476;2023-12-20T08:46:37;7.53;;;6.70;;
50012;SDS011;35901;48.694;9.476;2023-12-20T08:49:02;7.67;;;6.90;;
50012;SDS011;35901;48.694;9.476;2023-12-20T08:51:28;8.57;;;6.90;;
50012;SDS011;35901;48.694;9.476;2023-12-20T08:53:54;9.87;;;6.50;;
50012;SDS011;35901;48.694;9.476;2023-12-20T08:56:19;8.03;;;6.47;;
50012;SDS011;35901;48.694;9.476;2023-12-20T08:58:46;9.07;;;7.33;;
50012;SDS011;35901;48.694;9.476;2023-12-20T09:01:12;7.97;;;7.00;;
50012;SDS011;35901;48.694;9.476;2023-12-20T09:03:38;7.83;;;6.03;;
50012;SDS011;35901;48.694;9.476;2023-12-20T09:06:04;7.30;;;6.47;;
50012;SDS011;35901;48.694;9.476;2023-12-20T09:08:30;6.80;;;5.77;;
50012;SDS011;35901;48.694;9.476;2023-12-20T09:10:56;6.23;;;5.63;;
50012;SDS011;35901;48.694;9.476;2023-12-20T09:13:22;5.73;;;5.07;;
50012;SDS011;35901;48.694;9.476;2023-12-20T09:15:53;8.10;;;6.37;;
50012;SDS011;35901;48.694;9.476;2023-12-20T09:18:21;8.53;;;6.33;;
50012;SDS011;35901;48.694;9.476;2023-12-20T09:20:47;7.30;;;5.83;;
50012;SDS011;35901;48.694;9.476;2023-12-20T09:23:12;6.53;;;5.90;;
50012;SDS011;35901;48.694;9.476;2023-12-20T09:25:38;9.77;;;6.53;;
50012;SDS011;35901;48.694;9.476;2023-12-20T09:28:04;7.20;;;5.17;;
50012;SDS011;35901;48.694;9.476;2023-12-20T09:30:30;6.70;;;6.00;;
50012;SDS011;35901;48.694;9.476;2023-12-20T09:32:56;5.77;;;5.07;;
50012;SDS011;35901;48.694;9.476;2023-12-20T09:35:23;4.60;;;4.20;;
50012;SDS011;35901;48.694;9.476;2023-12-20T09:37:49;6.87;;;5.40;;
50012;SDS011;35901;48.694;9.476;2023-12-20T09:40:15;5.17;;;3.70;;
50012;SDS011;35901;48.694;9.476;2023-12-20T09:43:03;3.70;;;3.40;;
50012;SDS011;35901;48.694;9.476;2023-12-20T09:45:30;3.67;;;3.27;;
50012;SDS011;35901;48.694;9.476;2023-12-20T09:47:56;3.73;;;3.43;;
50012;SDS011;35901;48.694;9.476;2023-12-20T09:50:23;5.60;;;3.50;;
50012;SDS011;35901;48.694;9.476;2023-12-20T09:52:50;3.47;;;3.17;;
50012;SDS011;35901;48.694;9.476;2023-12-20T09:55:20;3.73;;;3.43;;
50012;SDS011;35901;48.694;9.476;2023-12-20T09:57:47;4.27;;;3.40;;
50012;SDS011;35901;48.694;9.476;2023-12-20T10:00:14;6.90;;;3.80;;
50012;SDS011;35901;48.694;9.476;2023-12-20T10:02:50;3.60;;;3.07;;
50012;SDS011;35901;48.694;9.476;2023-12-20T10:05:25;4.27;;;3.20;;
50012;SDS011;35901;48.694;9.476;2023-12-20T10:07:56;6.27;;;3.17;;
50012;SDS011;35901;48.694;9.476;2023-12-20T10:10:22;4.70;;;2.57;;
50012;SDS011;35901;48.694;9.476;2023-12-20T10:13:04;4.33;;;3.20;;
50012;SDS011;35901;48.694;9.476;2023-12-20T10:15:34;3.13;;;2.50;;
50012;SDS011;35901;48.694;9.476;2023-12-20T10:18:01;3.77;;;2.57;;
50012;SDS011;35901;48.694;9.476;2023-12-20T10:20:28;3.43;;;2.83;;
50012;SDS011;35901;48.694;9.476;2023-12-20T10:22:54;6.43;;;2.40;;
50012;SDS011;35901;48.694;9.476;2023-12-20T10:25:23;4.23;;;2.40;;
50012;SDS011;35901;48.694;9.476;2023-12-20T10:27:50;4.23;;;2.40;;
50012;SDS011;35901;48.694;9.476;2023-12-20T10:30:34;2.73;;;2.50;;
50012;SDS011;35901;48.694;9.476;2023-12-20T10:32:59;4.13;;;2.70;;
50012;SDS011;35901;48.694;9.476;2023-12-20T10:35:25;3.77;;;2.30;;
50012;SDS011;35901;48.694;9.476;2023-12-20T10:37:52;5.90;;;2.33;;
50012;SDS011;35901;48.694;9.476;2023-12-20T10:40:21;7.23;;;2.63;;
50012;SDS011;35901;48.694;9.476;2023-12-20T10:42:47;2.50;;;2.30;;
50012;SDS011;35901;48.694;9.476;2023-12-20T10:45:14;4.07;;;2.00;;
50012;SDS011;35901;48.694;9.476;2023-12-20T10:47:42;2.90;;;1.80;;
50012;SDS011;35901;48.694;9.476;2023-12-20T10:50:11;7.03;;;1.80;;
50012;SDS011;35901;48.694;9.476;2023-12-20T10:52:37;4.40;;;2.17;;
50012;SDS011;35901;48.694;9.476;2023-12-20T10:55:03;5.60;;;3.07;;
50012;SDS011;35901;48.694;9.476;2023-12-20T10:57:30;12.83;;;8.30;;
50012;SDS011;35901;48.694;9.476;2023-12-20T10:59:56;18.67;;;11.07;;
50012;SDS011;35901;48.694;9.476;2023-12-20T11:02:29;15.63;;;9.33;;
50012;SDS011;35901;48.694;9.476;2023-12-20T11:05:04;11.57;;;7.80;;
50012;SDS011;35901;48.694;9.476;2023-12-20T11:07:41;6.23;;;3.43;;
50012;SDS011;35901;48.694;9.476;2023-12-20T11:10:19;18.90;;;11.73;;
50012;SDS011;35901;48.694;9.476;2023-12-20T11:15:42;7.17;;;4.50;;
50012;SDS011;35901;48.694;9.476;2023-12-20T11:18:08;8.10;;;4.40;;
50012;SDS011;35901;48.694;9.476;2023-12-20T11:20:37;6.83;;;4.00;;
50012;SDS011;35901;48.694;9.476;2023-12-20T11:23:04;3.93;;;2.23;;
50012;SDS011;35901;48.694;9.476;2023-12-20T11:28:23;9.20;;;4.97;;
50012;SDS011;35901;48.694;9.476;2023-12-20T11:30:54;10.93;;;7.43;;
50012;SDS011;35901;48.694;9.476;2023-12-20T11:33:21;16.10;;;9.93;;
50012;SDS011;35901;48.694;9.476;2023-12-20T11:35:50;12.67;;;7.80;;
50012;SDS011;35901;48.694;9.476;2023-12-20T11:38:17;8.80;;;4.23;;
50012;SDS011;35901;48.694;9.476;2023-12-20T11:40:45;5.40;;;2.30;;
50012;SDS011;35901;48.694;9.476;2023-12-20T11:43:29;5.57;;;2.20;;
50012;SDS011;35901;48.694;9.476;2023-12-20T11:46:02;7.77;;;4.47;;
50012;SDS011;35901;48.694;9.476;2023-12-20T11:48:32;7.97;;;4.13;;
50012;SDS011;35901;48.694;9.476;2023-12-20T11:51:00;6.33;;;3.33;;
50012;SDS011;35901;48.694;9.476;2023-12-20T11:53:25;5.47;;;3.77;;
50012;SDS011;35901;48.694;9.476;2023-12-20T11:55:51;4.60;;;2.80;;
50012;SDS011;35901;48.694;9.476;2023-12-20T11:58:18;8.07;;;3.40;;
50012;SDS011;35901;48.694;9.476;2023-12-20T12:00:44;13.23;;;7.40;;
50012;SDS011;35901;48.694;9.476;2023-12-20T12:03:10;6.17;;;3.77;;
50012;SDS011;35901;48.694;9.476;2023-12-20T12:05:40;7.83;;;3.83;;
50012;SDS011;35901;48.694;9.476;2023-12-20T12:08:06;4.10;;;2.47;;
50012;SDS011;35901;48.694;9.476;2023-12-20T12:10:32;6.33;;;2.10;;
50012;SDS011;35901;48.694;9.476;2023-12-20T12:12:58;4.40;;;2.10;;
50012;SDS011;35901;48.694;9.476;2023-12-20T12:15:25;6.50;;;2.40;;
50012;SDS011;35901;48.694;9.476;2023-12-20T12:17:55;6.87;;;3.30;;
50012;SDS011;35901;48.694;9.476;2023-12-20T12:20:21;4.73;;;2.57;;
50012;SDS011;35901;48.694;9.476;2023-12-20T12:23:01;4.93;;;2.80;;
50012;SDS011;35901;48.694;9.476;2023-12-20T12:25:28;4.10;;;2.10;;
50012;SDS011;35901;48.694;9.476;2023-12-20T12:27:55;4.73;;;1.73;;
50012;SDS011;35901;48.694;9.476;2023-12-20T12:30:22;4.83;;;2.23;;
50012;SDS011;35901;48.694;9.476;2023-12-20T12:32:48;5.03;;;2.97;;
50012;SDS011;35901;48.694;9.476;2023-12-20T12:35:14;4.70;;;2.80;;
50012;SDS011;35901;48.694;9.476;2023-12-20T12:37:40;12.70;;;6.73;;
50012;SDS011;35901;48.694;9.476;2023-12-20T12:40:10;12.13;;;6.80;;
50012;SDS011;35901;48.694;9.476;2023-12-20T12:42:39;7.47;;;3.40;;
50012;SDS011;35901;48.694;9.476;2023-12-20T12:45:15;6.67;;;4.00;;
50012;SDS011;35901;48.694;9.476;2023-12-20T12:47:40;4.63;;;3.30;;
50012;SDS011;35901;48.694;9.476;2023-12-20T12:50:06;9.53;;;3.53;;
50012;SDS011;35901;48.694;9.476;2023-12-20T12:52:32;5.30;;;3.30;;
50012;SDS011;35901;48.694;9.476;2023-12-20T12:54:58;6.20;;;2.70;;
50012;SDS011;35901;48.694;9.476;2023-12-20T12:57:23;5.33;;;2.50;;
50012;SDS011;35901;48.694;9.476;2023-12-20T12:59:49;6.27;;;2.00;;
50012;SDS011;35901;48.694;9.476;2023-12-20T13:02:15;4.53;;;1.87;;
50012;SDS011;35901;48.694;9.476;2023-12-20T13:04:41;3.77;;;1.73;;
50012;SDS011;35901;48.694;9.476;2023-12-20T13:07:08;3.60;;;1.67;;
50012;SDS011;35901;48.694;9.476;2023-12-20T13:09:35;2.70;;;1.73;;
50012;SDS011;35901;48.694;9.476;2023-12-20T13:12:01;6.07;;;2.27;;
50012;SDS011;35901;48.694;9.476;2023-12-20T13:14:29;3.53;;;2.07;;
50012;SDS011;35901;48.694;9.476;2023-12-20T13:16:57;4.00;;;1.70;;
50012;SDS011;35901;48.694;9.476;2023-12-20T13:19:23;4.17;;;1.60;;
50012;SDS011;35901;48.694;9.476;2023-12-20T13:21:48;4.60;;;1.60;;
50012;SDS011;35901;48.694;9.476;2023-12-20T13:24:14;4.20;;;1.70;;
50012;SDS011;35901;48.694;9.476;2023-12-20T13:26:39;2.80;;;1.57;;
50012;SDS011;35901;48.694;9.476;2023-12-20T13:29:05;4.40;;;2.10;;
50012;SDS011;35901;48.694;9.476;2023-12-20T13:31:31;5.70;;;2.10;;
50012;SDS011;35901;48.694;9.476;2023-12-20T13:33:56;6.07;;;2.53;;
50012;SDS011;35901;48.694;9.476;2023-12-20T13:36:22;4.27;;;1.90;;
50012;SDS011;35901;48.694;9.476;2023-12-20T13:38:48;1.73;;;1.50;;
50012;SDS011;35901;48.694;9.476;2023-12-20T13:41:13;4.07;;;1.80;;
50012;SDS011;35901;48.694;9.476;2023-12-20T13:43:39;2.87;;;1.70;;
50012;SDS011;35901;48.694;9.476;2023-12-20T13:46:05;3.30;;;1.67;;
50012;SDS011;35901;48.694;9.476;2023-12-20T13:48:30;3.43;;;1.90;;
50012;SDS011;35901;48.694;9.476;2023-12-20T13:50:56;3.83;;;2.07;;
50012;SDS011;35901;48.694;9.476;2023-12-20T13:53:22;2.57;;;1.67;;
50012;SDS011;35901;48.694;9.476;2023-12-20T13:55:47;4.37;;;1.97;;
50012;SDS011;35901;48.694;9.476;2023-12-20T13:58:13;4.20;;;1.83;;
50012;SDS011;35901;48.694;9.476;2023-12-20T14:00:39;5.37;;;1.80;;
50012;SDS011;35901;48.694;9.476;2023-12-20T14:03:05;4.27;;;1.70;;
50012;SDS011;35901;48.694;9.476;2023-12-20T14:05:31;5.77;;;2.03;;
50012;SDS011;35901;48.694;9.476;2023-12-20T14:07:56;4.70;;;2.00;;
50012;SDS011;35901;48.694;9.476;2023-12-20T14:10:22;5.00;;;2.40;;
50012;SDS011;35901;48.694;9.476;2023-12-20T14:12:48;4.17;;;2.30;;
50012;SDS011;35901;48.694;9.476;2023-12-20T14:15:14;5.33;;;2.93;;
50012;SDS011;35901;48.694;9.476;2023-12-20T14:17:40;5.37;;;3.07;;
50012;SDS011;35901;48.694;9.476;2023-12-20T14:20:09;4.83;;;2.50;;
50012;SDS011;35901;48.694;9.476;2023-12-20T14:22:37;6.57;;;2.97;;
50012;SDS011;35901;48.694;9.476;2023-12-20T14:25:03;6.13;;;3.00;;
50012;SDS011;35901;48.694;9.476;2023-12-20T14:27:31;6.33;;;3.20;;
50012;SDS011;35901;48.694;9.476;2023-12-20T14:29:56;3.90;;;2.77;;
50012;SDS011;35901;48.694;9.476;2023-12-20T14:32:23;6.37;;;2.23;;
50012;SDS011;35901;48.694;9.476;2023-12-20T14:34:51;5.37;;;2.27;;
50012;SDS011;35901;48.694;9.476;2023-12-20T14:37:17;5.53;;;2.17;;
50012;SDS011;35901;48.694;9.476;2023-12-20T14:39:42;5.83;;;2.80;;
50012;SDS011;35901;48.694;9.476;2023-12-20T14:42:08;4.43;;;2.30;;
50012;SDS011;35901;48.694;9.476;2023-12-20T14:44:42;4.10;;;2.37;;
50012;SDS011;35901;48.694;9.476;2023-12-20T14:47:08;4.40;;;2.80;;
50012;SDS011;35901;48.694;9.476;2023-12-20T14:49:34;5.50;;;2.60;;
50012;SDS011;35901;48.694;9.476;2023-12-20T14:52:01;4.90;;;2.03;;
50012;SDS011;35901;48.694;9.476;2023-12-20T14:54:26;2.73;;;2.00;;
50012;SDS011;35901;48.694;9.476;2023-12-20T14:56:52;7.03;;;2.23;;
50012;SDS011;35901;48.694;9.476;2023-12-20T14:59:18;4.30;;;2.03;;